createdAt,value
2022-11-09T00:05:01.451Z,18.40
2022-11-09T00:13:09.498Z,20.27
2022-11-09T00:21:17.022Z,20.60
2022-11-09T00:29:25.326Z,17.33
2022-11-09T00:37:32.929Z,17.67
2022-11-09T00:45:41.275Z,17.30
2022-11-09T00:53:48.528Z,18.40
2022-11-09T01:01:56.936Z,17.17
2022-11-09T01:10:02.667Z,16.10
2022-11-09T01:18:11.214Z,17.38
2022-11-09T01:26:18.424Z,16.77
2022-11-09T01:34:27.169Z,15.18
2022-11-09T01:42:33.033Z,14.95
2022-11-09T01:50:52.300Z,13.32
2022-11-09T01:59:02.301Z,15.77
2022-11-09T02:07:11.859Z,14.95
2022-11-09T02:15:18.473Z,13.57
2022-11-09T02:23:28.328Z,14.30
2022-11-09T02:31:37.455Z,14.15
2022-11-09T02:39:45.655Z,14.45
2022-11-09T02:47:54.126Z,13.95
2022-11-09T02:56:02.546Z,13.77
2022-11-09T03:04:08.617Z,12.57
2022-11-09T03:12:29.923Z,11.43
2022-11-09T03:20:42.848Z,12.40
2022-11-09T03:28:51.343Z,13.57
2022-11-09T03:36:57.133Z,11.52
2022-11-09T03:45:05.870Z,10.95
2022-11-09T03:53:12.615Z,11.60
2022-11-09T04:01:20.789Z,11.63
2022-11-09T04:09:26.283Z,11.05
2022-11-09T04:17:34.432Z,11.90
2022-11-09T04:25:41.345Z,12.00
2022-11-09T04:33:53.326Z,13.35
2022-11-09T04:41:58.978Z,12.27
2022-11-09T04:50:20.845Z,11.60
2022-11-09T04:58:47.747Z,10.57
2022-11-09T05:06:55.810Z,10.75
2022-11-09T05:15:01.662Z,10.13
2022-11-09T05:23:22.605Z,11.48
2022-11-09T05:31:28.772Z,11.50
2022-11-09T05:39:39.916Z,11.60
2022-11-09T05:47:46.810Z,11.32
2022-11-09T05:55:55.283Z,11.35
2022-11-09T06:04:00.819Z,9.82
2022-11-09T06:12:10.647Z,10.00
2022-11-09T06:20:16.276Z,11.25
2022-11-09T06:28:25.864Z,11.35
2022-11-09T06:36:31.348Z,9.88
2022-11-09T06:44:39.485Z,11.38
2022-11-09T06:52:46.138Z,10.85
2022-11-09T07:00:55.214Z,10.68
2022-11-09T07:09:03.486Z,11.95
2022-11-09T07:17:09.142Z,13.55
2022-11-09T07:25:17.373Z,11.05
2022-11-09T07:33:23.994Z,10.55
2022-11-09T07:41:34.917Z,13.05
2022-11-09T07:49:40.614Z,13.73
2022-11-09T07:57:48.526Z,10.68
2022-11-09T08:05:54.248Z,13.90
2022-11-09T08:14:02.203Z,11.05
2022-11-09T08:22:07.477Z,12.63
2022-11-09T08:30:18.474Z,11.32
2022-11-09T08:38:24.408Z,12.07
2022-11-09T08:46:37.028Z,11.73
2022-11-09T08:54:47.835Z,11.10
2022-11-09T09:02:55.914Z,11.70
2022-11-09T09:11:04.440Z,11.88
2022-11-09T09:19:12.505Z,10.73
2022-11-09T09:27:17.961Z,11.98
2022-11-09T09:35:26.026Z,12.70
2022-11-09T09:43:39.728Z,11.00
2022-11-09T09:51:54.995Z,12.15
2022-11-09T10:00:04.341Z,13.65
2022-11-09T10:08:30.386Z,14.88
2022-11-09T10:16:44.047Z,15.05
2022-11-09T10:25:20.697Z,15.98
2022-11-09T10:33:25.721Z,16.48
2022-11-09T10:41:40.232Z,18.98
2022-11-09T10:50:20.527Z,16.37
2022-11-09T10:58:51.234Z,17.08
2022-11-09T11:07:20.957Z,17.83
2022-11-09T11:15:48.973Z,19.13
2022-11-09T11:24:17.224Z,16.88
2022-11-09T11:32:48.960Z,17.02
2022-11-09T11:41:38.634Z,17.85
2022-11-09T11:50:28.103Z,18.42
2022-11-09T11:59:09.887Z,20.45
2022-11-09T12:07:44.945Z,18.63
2022-11-09T12:16:14.347Z,20.17
2022-11-09T12:24:46.580Z,18.73
2022-11-09T12:33:15.442Z,18.75
2022-11-09T12:41:43.598Z,18.95
2022-11-09T12:50:09.373Z,19.27
2022-11-09T12:58:37.871Z,18.27
2022-11-09T13:07:20.979Z,18.27
2022-11-09T13:16:22.234Z,19.58
2022-11-09T13:24:55.851Z,19.15
2022-11-09T13:33:29.781Z,19.15
2022-11-09T13:41:53.948Z,18.17
2022-11-09T13:50:25.318Z,19.60
2022-11-09T13:58:51.229Z,18.88
2022-11-09T14:07:23.422Z,19.10
2022-11-09T14:15:54.733Z,18.95
2022-11-09T14:24:24.302Z,21.80
2022-11-09T14:32:54.270Z,20.88
2022-11-09T14:41:25.766Z,20.30
2022-11-09T14:49:49.978Z,21.30
2022-11-09T14:58:18.207Z,19.23
2022-11-09T15:06:49.129Z,31.98
2022-11-09T15:15:27.270Z,31.42
2022-11-09T15:23:52.901Z,30.15
2022-11-09T15:32:23.956Z,25.90
2022-11-09T15:40:47.982Z,25.65
2022-11-09T15:49:24.311Z,22.80
2022-11-09T15:57:48.621Z,20.73
2022-11-09T16:06:22.459Z,20.42
2022-11-09T16:14:46.456Z,20.92
2022-11-09T16:23:12.910Z,24.50
2022-11-09T16:31:52.791Z,25.92
2022-11-09T16:40:20.154Z,31.83
2022-11-09T16:48:44.031Z,34.75
2022-11-09T16:57:10.914Z,36.35
2022-11-09T17:05:34.900Z,34.58
2022-11-09T17:14:02.729Z,35.85
2022-11-09T17:22:26.650Z,33.63
2022-11-09T17:30:57.638Z,32.03
2022-11-09T17:39:21.949Z,30.45
2022-11-09T17:47:48.647Z,27.88
2022-11-09T17:56:28.799Z,25.35
2022-11-09T18:04:55.663Z,29.25
2022-11-09T18:13:27.703Z,25.73
2022-11-09T18:21:56.009Z,28.08
2022-11-09T18:30:20.623Z,27.63
2022-11-09T18:38:47.845Z,30.98
2022-11-09T18:47:13.834Z,31.67
2022-11-09T18:55:40.536Z,29.65
2022-11-09T19:04:04.517Z,23.30
2022-11-09T19:12:32.821Z,19.85
2022-11-09T19:21:04.300Z,22.10
2022-11-09T19:29:31.035Z,22.25
2022-11-09T19:37:55.089Z,33.22
2022-11-09T19:46:21.781Z,32.80
2022-11-09T19:54:45.816Z,32.45
2022-11-09T20:03:12.819Z,27.85
2022-11-09T20:11:49.473Z,25.17
2022-11-09T20:20:17.643Z,29.40
2022-11-09T20:28:41.846Z,29.90
2022-11-09T20:37:08.733Z,24.80
2022-11-09T20:45:33.552Z,25.35
2022-11-09T20:54:06.577Z,26.13
2022-11-09T21:02:31.528Z,26.15
2022-11-09T21:10:58.353Z,25.13
2022-11-09T21:19:22.183Z,25.67
2022-11-09T21:28:01.396Z,25.58
2022-11-09T21:36:25.526Z,26.38
2022-11-09T21:44:52.092Z,26.83
2022-11-09T21:53:16.198Z,23.73
2022-11-09T22:01:43.103Z,25.75
2022-11-09T22:10:11.528Z,22.52
2022-11-09T22:18:51.297Z,22.25
2022-11-09T22:27:15.429Z,24.65
2022-11-09T22:35:42.094Z,24.20
2022-11-09T22:44:06.267Z,22.48
2022-11-09T22:52:32.799Z,21.17
2022-11-09T23:00:56.843Z,22.33
2022-11-09T23:09:23.416Z,22.17
2022-11-09T23:17:59.581Z,20.63
2022-11-09T23:26:27.253Z,19.40
2022-11-09T23:34:51.396Z,21.92
2022-11-09T23:51:41.424Z,18.17
